createdAt,value
2018-11-14T00:02:20.945Z,10.01
2018-11-14T00:04:50.229Z,9.89
2018-11-14T00:07:19.452Z,9.56
2018-11-14T00:09:48.865Z,9.65
2018-11-14T00:12:18.146Z,9.81
2018-11-14T00:14:47.454Z,9.80
2018-11-14T00:17:16.848Z,9.63
2018-11-14T00:19:46.139Z,9.49
2018-11-14T00:22:15.431Z,8.82
2018-11-14T00:24:44.888Z,9.36
2018-11-14T00:27:14.098Z,9.51
2018-11-14T00:29:43.334Z,9.60
2018-11-14T00:32:12.727Z,9.64
2018-11-14T00:34:42.015Z,9.68
2018-11-14T00:37:11.229Z,9.69
2018-11-14T00:39:40.450Z,9.70
2018-11-14T00:42:09.910Z,9.68
2018-11-14T00:44:39.132Z,9.65
2018-11-14T00:47:08.551Z,9.74
2018-11-14T00:49:37.864Z,9.52
2018-11-14T00:52:07.070Z,8.60
2018-11-14T00:54:36.319Z,9.18
2018-11-14T00:57:05.673Z,9.36
2018-11-14T00:59:34.915Z,9.33
2018-11-14T01:02:04.182Z,9.34
2018-11-14T01:04:33.498Z,9.38
2018-11-14T01:07:02.761Z,9.48
2018-11-14T01:09:32.011Z,9.52
2018-11-14T01:12:01.286Z,9.18
2018-11-14T01:14:30.514Z,9.19
2018-11-14T01:16:59.770Z,9.31
2018-11-14T01:19:29.003Z,9.14
2018-11-14T01:21:58.222Z,9.33
2018-11-14T01:24:27.491Z,9.40
2018-11-14T01:26:56.794Z,9.25
2018-11-14T01:29:25.931Z,9.14
2018-11-14T01:31:55.243Z,9.18
2018-11-14T01:34:24.524Z,9.37
2018-11-14T01:36:53.742Z,9.16
2018-11-14T01:39:22.930Z,9.36
2018-11-14T01:41:52.123Z,9.51
2018-11-14T01:44:21.297Z,9.08
2018-11-14T01:46:50.498Z,9.11
2018-11-14T01:49:19.695Z,8.84
2018-11-14T01:51:48.951Z,9.11
2018-11-14T01:54:18.181Z,9.22
2018-11-14T01:56:47.458Z,9.20
2018-11-14T01:59:16.734Z,9.35
2018-11-14T02:01:45.988Z,9.45
2018-11-14T02:04:15.411Z,9.42
2018-11-14T02:06:44.660Z,9.42
2018-11-14T02:09:13.908Z,8.67
2018-11-14T02:11:43.155Z,8.15
2018-11-14T02:14:12.394Z,8.92
2018-11-14T02:16:41.643Z,8.62
2018-11-14T02:19:10.900Z,8.85
2018-11-14T02:21:40.160Z,9.24
2018-11-14T02:24:09.430Z,9.41
2018-11-14T02:26:38.782Z,9.47
2018-11-14T02:29:07.993Z,9.56
2018-11-14T02:31:37.241Z,9.49
2018-11-14T02:34:06.980Z,9.50
2018-11-14T02:36:36.253Z,9.59
2018-11-14T02:39:06.889Z,9.62
2018-11-14T02:41:36.208Z,9.57
2018-11-14T02:44:05.581Z,9.55
2018-11-14T02:46:34.895Z,9.56
2018-11-14T02:49:04.150Z,9.27
2018-11-14T02:51:33.389Z,8.65
2018-11-14T02:54:02.662Z,8.19
2018-11-14T02:56:32.013Z,7.97
2018-11-14T02:59:01.291Z,8.74
2018-11-14T03:01:30.572Z,8.94
2018-11-14T03:03:59.822Z,9.16
2018-11-14T03:06:29.111Z,9.12
2018-11-14T03:08:58.425Z,9.21
2018-11-14T03:11:27.678Z,9.17
2018-11-14T03:13:56.967Z,8.58
2018-11-14T03:16:26.277Z,9.02
2018-11-14T03:18:55.539Z,8.72
2018-11-14T03:21:24.940Z,8.83
2018-11-14T03:23:54.285Z,8.87
2018-11-14T03:26:23.632Z,9.11
2018-11-14T03:28:52.871Z,8.98
2018-11-14T03:31:22.281Z,8.56
2018-11-14T03:33:51.829Z,8.71
2018-11-14T03:36:21.907Z,9.10
2018-11-14T03:38:51.160Z,9.07
2018-11-14T03:41:20.479Z,9.06
2018-11-14T03:43:49.683Z,9.08
2018-11-14T03:46:19.038Z,8.50
2018-11-14T03:48:48.480Z,8.59
2018-11-14T03:51:17.939Z,8.41
2018-11-14T03:53:47.181Z,8.18
2018-11-14T03:56:16.303Z,8.54
2018-11-14T03:58:45.629Z,8.75
2018-11-14T04:01:14.898Z,8.78
2018-11-14T04:03:44.231Z,8.71
2018-11-14T04:06:13.571Z,8.77
2018-11-14T04:08:42.964Z,8.62
2018-11-14T04:11:12.233Z,8.73
2018-11-14T04:13:41.655Z,8.45
2018-11-14T04:16:11.001Z,8.39
2018-11-14T04:18:40.330Z,8.04
2018-11-14T04:21:09.577Z,7.59
2018-11-14T04:23:45.688Z,7.47
2018-11-14T04:26:14.954Z,7.44
2018-11-14T04:28:44.299Z,6.94
2018-11-14T04:31:13.582Z,6.90
2018-11-14T04:33:43.019Z,6.79
2018-11-14T04:36:12.346Z,6.75
2018-11-14T04:38:41.606Z,6.77
2018-11-14T04:41:10.985Z,7.02
2018-11-14T04:43:40.322Z,7.38
2018-11-14T04:46:09.670Z,7.65
2018-11-14T04:48:39.009Z,7.68
2018-11-14T04:51:08.401Z,7.27
2018-11-14T04:53:37.607Z,7.04
2018-11-14T04:56:06.991Z,6.94
2018-11-14T04:58:36.415Z,7.41
2018-11-14T05:01:05.683Z,7.07
2018-11-14T05:03:34.908Z,6.98
2018-11-14T05:06:04.178Z,7.45
2018-11-14T05:08:33.398Z,7.29
2018-11-14T05:11:02.589Z,7.79
2018-11-14T05:13:32.010Z,7.68
2018-11-14T05:16:00.979Z,7.42
2018-11-14T05:18:29.991Z,7.23
2018-11-14T05:20:58.950Z,7.07
2018-11-14T05:23:27.960Z,7.02
2018-11-14T05:25:56.904Z,7.07
2018-11-14T05:28:25.901Z,7.11
2018-11-14T05:30:54.950Z,7.13
2018-11-14T05:33:23.978Z,7.16
2018-11-14T05:35:52.946Z,7.07
2018-11-14T05:38:21.913Z,7.10
2018-11-14T05:40:50.930Z,7.17
2018-11-14T05:43:19.902Z,7.09
2018-11-14T05:45:48.885Z,6.95
2018-11-14T05:48:17.832Z,6.95
2018-11-14T05:50:46.870Z,6.95
2018-11-14T05:53:15.856Z,6.87
2018-11-14T05:55:45.221Z,6.83
2018-11-14T05:58:14.238Z,6.92
2018-11-14T06:00:43.270Z,7.02
2018-11-14T06:03:12.247Z,7.03
2018-11-14T06:05:41.251Z,7.05
2018-11-14T06:08:10.215Z,7.05
2018-11-14T06:10:39.183Z,6.96
2018-11-14T06:13:08.218Z,6.88
2018-11-14T06:15:37.223Z,6.78
2018-11-14T06:18:06.238Z,6.83
2018-11-14T06:20:35.247Z,6.88
2018-11-14T06:23:04.191Z,6.79
2018-11-14T06:25:37.411Z,6.55
2018-11-14T06:28:09.520Z,6.50
2018-11-14T06:30:39.474Z,6.52
2018-11-14T06:33:09.365Z,6.57
2018-11-14T06:35:38.369Z,6.55
2018-11-14T06:38:07.326Z,6.52
2018-11-14T06:40:36.372Z,6.49
2018-11-14T06:43:05.333Z,6.40
2018-11-14T06:45:34.967Z,6.58
2018-11-14T06:48:04.379Z,6.67
2018-11-14T06:50:33.367Z,6.79
2018-11-14T06:53:03.754Z,6.92
2018-11-14T06:55:32.867Z,6.76
2018-11-14T06:58:01.874Z,6.85
2018-11-14T07:00:32.209Z,7.09
2018-11-14T07:03:02.200Z,7.26
2018-11-14T07:05:31.265Z,7.25
2018-11-14T07:08:00.196Z,7.45
2018-11-14T07:10:30.494Z,7.38
2018-11-14T07:13:04.642Z,7.41
2018-11-14T07:15:33.945Z,7.43
2018-11-14T07:18:03.002Z,7.18
2018-11-14T07:20:33.342Z,6.97
2018-11-14T07:23:02.394Z,6.88
2018-11-14T07:25:31.402Z,6.77
2018-11-14T07:28:00.406Z,6.75
2018-11-14T07:30:30.338Z,6.76
2018-11-14T07:33:02.643Z,6.77
2018-11-14T07:35:31.626Z,6.72
2018-11-14T07:38:38.094Z,6.72
2018-11-14T07:41:08.831Z,6.82
2018-11-14T07:43:38.440Z,6.84
2018-11-14T07:46:07.841Z,7.19
2018-11-14T07:48:36.995Z,7.13
2018-11-14T07:51:06.174Z,7.22
2018-11-14T07:53:35.234Z,7.24
2018-11-14T07:56:04.258Z,7.52
2018-11-14T07:58:33.394Z,7.28
2018-11-14T08:01:02.438Z,7.45
2018-11-14T08:03:31.463Z,7.37
2018-11-14T08:06:00.421Z,7.30
2018-11-14T08:08:29.491Z,7.24
2018-11-14T08:10:58.445Z,7.15
2018-11-14T08:13:28.717Z,7.14
2018-11-14T08:15:58.910Z,7.13
2018-11-14T08:18:28.759Z,7.15
2018-11-14T08:20:58.472Z,7.27
2018-11-14T08:23:27.494Z,7.37
2018-11-14T08:25:56.734Z,7.74
2018-11-14T08:28:25.750Z,7.76
2018-11-14T08:30:54.905Z,7.61
2018-11-14T08:33:23.925Z,7.54
2018-11-14T08:35:52.945Z,7.63
2018-11-14T08:38:22.146Z,7.66
2018-11-14T08:40:51.114Z,7.60
2018-11-14T08:43:20.280Z,7.69
2018-11-14T08:45:49.271Z,7.63
2018-11-14T08:48:18.264Z,7.55
2018-11-14T08:50:47.227Z,7.40
2018-11-14T08:53:16.232Z,7.54
2018-11-14T08:55:45.235Z,7.68
2018-11-14T08:58:14.845Z,7.38
2018-11-14T09:00:43.810Z,7.37
2018-11-14T09:03:13.950Z,7.41
2018-11-14T09:05:42.958Z,7.30
2018-11-14T09:08:12.154Z,7.21
2018-11-14T09:10:41.109Z,7.33
2018-11-14T09:13:15.740Z,7.23
2018-11-14T09:15:44.874Z,7.37
2018-11-14T09:18:13.955Z,7.50
2018-11-14T09:20:42.933Z,7.46
2018-11-14T09:23:11.934Z,7.55
2018-11-14T09:25:40.904Z,7.66
2018-11-14T09:28:10.003Z,7.58
2018-11-14T09:30:38.993Z,7.69
2018-11-14T09:33:08.086Z,7.61
2018-11-14T09:35:37.003Z,7.79
2018-11-14T09:38:06.014Z,7.74
2018-11-14T09:40:35.134Z,7.70
2018-11-14T09:43:04.103Z,7.95
2018-11-14T09:45:33.088Z,8.03
2018-11-14T09:48:02.119Z,8.05
2018-11-14T09:50:32.103Z,7.90
2018-11-14T09:53:02.553Z,7.91
2018-11-14T09:55:32.159Z,8.32
2018-11-14T09:58:01.202Z,8.21
2018-11-14T10:00:31.636Z,8.15
2018-11-14T10:03:09.666Z,7.95
2018-11-14T10:05:38.706Z,8.19
2018-11-14T10:08:07.684Z,8.35
2018-11-14T10:10:37.400Z,8.44
2018-11-14T10:13:06.795Z,8.42
2018-11-14T10:15:36.281Z,8.27
2018-11-14T10:18:05.256Z,8.42
2018-11-14T10:20:34.270Z,8.32
2018-11-14T10:23:03.210Z,8.24
2018-11-14T10:25:32.193Z,8.16
2018-11-14T10:28:01.171Z,8.38
2018-11-14T10:30:30.408Z,8.19
2018-11-14T10:32:59.338Z,8.45
2018-11-14T10:35:28.331Z,8.77
2018-11-14T10:37:57.264Z,8.96
2018-11-14T10:40:28.821Z,9.04
2018-11-14T10:42:57.851Z,8.81
2018-11-14T10:45:27.643Z,8.69
2018-11-14T10:47:56.568Z,9.02
2018-11-14T10:50:27.043Z,9.01
2018-11-14T10:52:55.990Z,8.86
2018-11-14T10:55:25.342Z,8.82
2018-11-14T10:57:54.626Z,8.75
2018-11-14T11:00:31.643Z,8.69
2018-11-14T11:03:06.763Z,8.69
2018-11-14T11:05:40.796Z,8.70
2018-11-14T11:08:15.045Z,8.85
2018-11-14T11:11:51.131Z,8.88
2018-11-14T11:14:25.258Z,8.91
2018-11-14T11:16:59.452Z,8.88
2018-11-14T11:19:31.522Z,8.83
2018-11-14T11:22:00.710Z,8.91
2018-11-14T11:24:29.800Z,9.01
2018-11-14T11:26:58.827Z,9.05
2018-11-14T11:29:27.861Z,9.12
2018-11-14T11:31:56.936Z,9.27
2018-11-14T11:34:25.897Z,9.36
2018-11-14T11:36:54.895Z,9.37
2018-11-14T11:39:23.837Z,9.12
2018-11-14T11:41:53.315Z,8.99
2018-11-14T11:44:22.242Z,8.94
2018-11-14T11:46:51.311Z,8.88
2018-11-14T11:49:20.653Z,9.04
2018-11-14T11:51:49.738Z,9.04
2018-11-14T11:54:19.749Z,9.27
2018-11-14T11:56:48.906Z,9.40
2018-11-14T11:59:17.931Z,9.42
2018-11-14T12:01:46.967Z,9.44
2018-11-14T12:04:15.893Z,9.66
2018-11-14T12:06:44.871Z,9.62
2018-11-14T12:09:13.906Z,9.28
2018-11-14T12:11:42.882Z,9.24
2018-11-14T12:14:11.829Z,9.18
2018-11-14T12:16:40.886Z,9.21
2018-11-14T12:19:09.914Z,9.24
2018-11-14T12:21:38.902Z,9.29
2018-11-14T12:24:07.942Z,9.44
2018-11-14T12:26:37.086Z,9.45
2018-11-14T12:29:06.141Z,9.62
2018-11-14T12:31:35.221Z,9.92
2018-11-14T12:34:04.204Z,9.92
2018-11-14T12:36:33.244Z,10.05
2018-11-14T12:39:02.213Z,10.21
2018-11-14T12:41:31.166Z,10.21
2018-11-14T12:44:00.257Z,10.14
2018-11-14T12:46:29.306Z,10.23
2018-11-14T12:48:58.343Z,10.01
2018-11-14T12:51:27.330Z,9.91
2018-11-14T12:53:56.362Z,9.71
2018-11-14T12:56:25.359Z,9.57
2018-11-14T12:58:54.478Z,9.64
2018-11-14T13:01:23.433Z,9.91
2018-11-14T13:03:52.569Z,9.92
2018-11-14T13:06:21.518Z,9.90
2018-11-14T13:08:50.943Z,10.03
2018-11-14T13:11:20.418Z,9.84
2018-11-14T13:13:49.971Z,10.02
2018-11-14T13:16:19.305Z,10.20
2018-11-14T13:18:48.349Z,10.29
2018-11-14T13:21:17.341Z,10.40
2018-11-14T13:23:46.457Z,9.86
2018-11-14T13:26:15.434Z,10.11
2018-11-14T13:28:44.461Z,10.07
2018-11-14T13:31:13.463Z,9.92
2018-11-14T13:33:42.514Z,9.88
2018-11-14T13:36:11.543Z,10.19
2018-11-14T13:38:40.563Z,10.13
2018-11-14T13:41:09.591Z,9.99
2018-11-14T13:43:38.702Z,9.93
2018-11-14T13:46:07.804Z,9.69
2018-11-14T13:48:36.887Z,9.52
2018-11-14T13:51:05.947Z,9.35
2018-11-14T13:53:35.006Z,9.41
2018-11-14T13:56:03.964Z,9.23
2018-11-14T13:58:32.962Z,9.48
2018-11-14T14:01:01.973Z,9.69
2018-11-14T14:03:31.003Z,9.74
2018-11-14T14:05:59.967Z,9.68
2018-11-14T14:08:28.992Z,9.66
2018-11-14T14:10:57.953Z,9.36
2018-11-14T14:13:26.978Z,9.43
2018-11-14T14:15:56.284Z,9.33
2018-11-14T14:18:25.325Z,9.29
2018-11-14T14:20:54.653Z,9.40
2018-11-14T14:23:24.225Z,9.38
2018-11-14T14:25:53.222Z,9.37
2018-11-14T14:28:22.213Z,9.73
2018-11-14T14:30:51.260Z,9.82
2018-11-14T14:33:20.589Z,9.76
2018-11-14T14:35:50.007Z,9.65
2018-11-14T14:38:19.237Z,9.72
2018-11-14T14:40:48.201Z,9.56
2018-11-14T14:43:17.189Z,9.90
2018-11-14T14:45:46.146Z,9.91
2018-11-14T14:48:15.122Z,10.06
2018-11-14T14:50:44.086Z,10.19
2018-11-14T14:53:13.111Z,10.28
2018-11-14T14:55:42.092Z,10.17
2018-11-14T14:58:11.118Z,10.14
2018-11-14T15:00:40.103Z,10.28
2018-11-14T15:03:09.367Z,10.16
2018-11-14T15:05:38.310Z,10.07
2018-11-14T15:08:07.399Z,10.31
2018-11-14T15:10:36.402Z,10.41
2018-11-14T15:13:05.656Z,10.53
2018-11-14T15:15:34.709Z,10.48
2018-11-14T15:18:03.736Z,10.18
2018-11-14T15:20:32.747Z,10.29
2018-11-14T15:23:01.787Z,10.38
2018-11-14T15:25:31.202Z,10.52
2018-11-14T15:28:00.723Z,10.33
2018-11-14T15:30:30.619Z,10.40
2018-11-14T15:32:59.911Z,10.19
2018-11-14T15:35:28.912Z,9.96
2018-11-14T15:37:57.989Z,10.05
2018-11-14T15:40:27.908Z,10.09
2018-11-14T15:42:57.015Z,10.11
2018-11-14T15:45:27.574Z,10.17
2018-11-14T15:47:56.576Z,10.21
2018-11-14T15:50:27.208Z,10.34
2018-11-14T15:52:57.119Z,10.23
2018-11-14T15:55:26.166Z,10.01
2018-11-14T15:57:55.429Z,9.87
2018-11-14T16:00:26.487Z,9.77
2018-11-14T16:02:55.668Z,9.43
2018-11-14T16:05:25.781Z,9.18
2018-11-14T16:07:55.845Z,9.36
2018-11-14T16:10:26.341Z,9.43
2018-11-14T16:12:55.302Z,9.49
2018-11-14T16:15:25.722Z,9.61
2018-11-14T16:17:54.697Z,9.64
2018-11-14T16:20:24.752Z,9.72
2018-11-14T16:22:53.702Z,9.57
2018-11-14T16:25:23.983Z,9.68
2018-11-14T16:27:54.485Z,9.59
2018-11-14T16:30:24.843Z,9.54
2018-11-14T16:32:55.125Z,9.71
2018-11-14T16:35:24.127Z,9.92
2018-11-14T16:37:53.103Z,9.88
2018-11-14T16:40:24.577Z,9.79
2018-11-14T16:42:54.500Z,9.63
2018-11-14T16:45:23.556Z,9.69
2018-11-14T16:47:52.749Z,9.82
2018-11-14T16:50:22.503Z,9.83
2018-11-14T16:52:51.445Z,10.04
2018-11-14T16:55:21.272Z,9.79
2018-11-14T16:57:51.282Z,10.03
2018-11-14T17:00:21.963Z,10.22
2018-11-14T17:02:50.895Z,10.10
2018-11-14T17:05:20.431Z,10.21
2018-11-14T17:07:49.402Z,10.08
2018-11-14T17:10:19.581Z,10.19
2018-11-14T17:12:50.255Z,10.19
2018-11-14T17:15:20.610Z,10.19
2018-11-14T17:17:49.923Z,10.26
2018-11-14T17:20:20.249Z,10.12
2018-11-14T17:22:50.023Z,9.61
2018-11-14T17:25:19.462Z,9.85
2018-11-14T17:27:48.714Z,10.18
2018-11-14T17:30:19.271Z,10.10
2018-11-14T17:32:48.234Z,9.84
2018-11-14T17:35:17.835Z,9.78
2018-11-14T17:37:47.022Z,9.83
2018-11-14T17:40:21.097Z,9.22
2018-11-14T17:42:51.034Z,9.38
2018-11-14T17:45:21.973Z,9.44
2018-11-14T17:47:51.412Z,9.80
2018-11-14T17:50:22.945Z,9.65
2018-11-14T17:52:52.772Z,9.44
2018-11-14T17:55:22.484Z,9.79
2018-11-14T17:57:51.498Z,9.92
2018-11-14T18:00:24.760Z,9.42
2018-11-14T18:02:53.835Z,9.82
2018-11-14T18:05:26.237Z,9.62
2018-11-14T18:07:55.587Z,9.26
2018-11-14T18:10:27.094Z,9.60
2018-11-14T18:12:57.215Z,9.91
2018-11-14T18:15:26.356Z,9.88
2018-11-14T18:17:56.233Z,9.90
2018-11-14T18:20:29.022Z,9.92
2018-11-14T18:22:58.115Z,9.89
2018-11-14T18:25:27.230Z,9.96
2018-11-14T18:27:56.218Z,9.88
2018-11-14T18:30:27.669Z,9.78
2018-11-14T18:32:57.526Z,9.74
2018-11-14T18:35:27.222Z,9.68
2018-11-14T18:37:57.093Z,9.86
2018-11-14T18:40:31.307Z,9.89
2018-11-14T18:43:00.292Z,9.69
2018-11-14T18:45:32.488Z,9.75
2018-11-14T18:48:02.202Z,9.69
2018-11-14T18:50:31.237Z,9.56
2018-11-14T18:53:00.284Z,9.22
2018-11-14T18:55:30.582Z,9.22
2018-11-14T18:58:00.408Z,9.20
2018-11-14T19:00:30.617Z,9.17
2018-11-14T19:02:59.922Z,8.92
2018-11-14T19:05:28.936Z,8.90
2018-11-14T19:07:57.903Z,8.93
2018-11-14T19:10:28.413Z,8.89
2018-11-14T19:12:57.390Z,8.78
2018-11-14T19:15:28.531Z,8.80
2018-11-14T19:17:57.482Z,8.99
2018-11-14T19:20:28.403Z,8.93
2018-11-14T19:22:58.143Z,9.01
2018-11-14T19:25:28.703Z,8.99
2018-11-14T19:27:57.708Z,9.02
2018-11-14T19:30:28.084Z,8.92
2018-11-14T19:32:57.690Z,8.82
2018-11-14T19:35:26.842Z,8.63
2018-11-14T19:37:56.623Z,8.45
2018-11-14T19:40:27.462Z,8.34
2018-11-14T19:42:58.633Z,8.18
2018-11-14T19:45:30.165Z,8.28
2018-11-14T19:47:59.191Z,8.30
2018-11-14T19:50:28.646Z,8.20
2018-11-14T19:52:57.650Z,8.14
2018-11-14T19:55:27.660Z,8.21
2018-11-14T19:57:57.853Z,8.12
2018-11-14T20:00:29.269Z,8.12
2018-11-14T20:02:58.227Z,8.15
2018-11-14T20:05:27.278Z,8.17
2018-11-14T20:07:56.269Z,8.08
2018-11-14T20:10:26.650Z,8.02
2018-11-14T20:12:56.026Z,7.93
2018-11-14T20:15:26.416Z,7.88
2018-11-14T20:17:55.635Z,7.94
2018-11-14T20:20:26.683Z,7.93
2018-11-14T20:22:55.899Z,8.03
2018-11-14T20:25:24.872Z,8.04
2018-11-14T20:27:53.912Z,8.10
2018-11-14T20:30:25.311Z,8.04
2018-11-14T20:32:55.266Z,8.09
2018-11-14T20:35:25.117Z,8.02
2018-11-14T20:37:54.142Z,8.05
2018-11-14T20:40:23.839Z,8.03
2018-11-14T20:42:53.606Z,7.99
2018-11-14T20:45:24.004Z,8.05
2018-11-14T20:47:53.046Z,8.16
2018-11-14T20:50:23.635Z,8.14
2018-11-14T20:52:54.352Z,8.28
2018-11-14T20:55:23.959Z,8.16
2018-11-14T20:57:52.956Z,8.33
2018-11-14T21:00:25.061Z,8.38
2018-11-14T21:02:54.241Z,8.42
2018-11-14T21:05:23.619Z,8.47
2018-11-14T21:07:52.732Z,8.45
2018-11-14T21:10:23.245Z,8.41
2018-11-14T21:12:52.935Z,8.43
2018-11-14T21:15:23.593Z,8.50
2018-11-14T21:17:53.412Z,8.51
2018-11-14T21:20:22.591Z,8.41
2018-11-14T21:22:51.603Z,8.75
2018-11-14T21:25:21.329Z,8.75
2018-11-14T21:27:50.742Z,8.75
2018-11-14T21:30:21.013Z,8.51
2018-11-14T21:32:50.020Z,8.59
2018-11-14T21:35:21.558Z,8.58
2018-11-14T21:37:52.043Z,8.62
2018-11-14T21:40:20.962Z,8.48
2018-11-14T21:42:49.979Z,8.46
2018-11-14T21:45:21.138Z,8.48
2018-11-14T21:47:55.148Z,8.58
2018-11-14T21:50:25.339Z,8.47
2018-11-14T21:52:54.588Z,8.37
2018-11-14T21:55:23.559Z,8.24
2018-11-14T21:57:52.782Z,8.19
2018-11-14T22:00:23.249Z,8.20
2018-11-14T22:02:53.579Z,8.20
2018-11-14T22:05:22.560Z,8.31
2018-11-14T22:07:51.550Z,8.35
2018-11-14T22:10:21.827Z,8.42
2018-11-14T22:12:51.121Z,8.45
2018-11-14T22:15:21.316Z,8.49
2018-11-14T22:17:50.583Z,8.51
2018-11-14T22:20:20.761Z,8.56
2018-11-14T22:22:50.079Z,8.48
2018-11-14T22:25:20.531Z,8.41
2018-11-14T22:27:49.652Z,8.41
2018-11-14T22:30:34.594Z,8.46
2018-11-14T22:33:03.599Z,8.52
2018-11-14T22:35:33.340Z,8.34
2018-11-14T22:38:02.381Z,8.34
2018-11-14T22:40:32.151Z,8.33
2018-11-14T22:43:01.137Z,8.39
2018-11-14T22:45:32.237Z,8.24
2018-11-14T22:48:01.243Z,8.29
2018-11-14T22:50:30.240Z,8.26
2018-11-14T22:52:59.242Z,8.31
2018-11-14T22:55:28.242Z,8.38
2018-11-14T22:57:57.312Z,8.31
2018-11-14T23:00:32.199Z,8.36
2018-11-14T23:03:03.412Z,8.41
2018-11-14T23:05:32.470Z,8.20
2018-11-14T23:08:03.159Z,8.25
2018-11-14T23:10:32.191Z,8.20
2018-11-14T23:13:01.154Z,8.29
2018-11-14T23:15:30.180Z,8.39
2018-11-14T23:17:59.392Z,8.27
2018-11-14T23:20:28.467Z,8.23
2018-11-14T23:22:57.452Z,8.23
2018-11-14T23:25:26.485Z,8.33
2018-11-14T23:27:56.159Z,8.29
2018-11-14T23:30:26.821Z,8.27
2018-11-14T23:32:56.695Z,8.33
2018-11-14T23:35:26.801Z,8.32
2018-11-14T23:37:58.063Z,8.29
2018-11-14T23:40:27.245Z,8.31
2018-11-14T23:42:56.310Z,8.28
2018-11-14T23:45:26.394Z,8.35
2018-11-14T23:47:55.333Z,8.43
2018-11-14T23:50:26.317Z,8.38
2018-11-14T23:52:56.615Z,8.45
2018-11-14T23:55:27.105Z,8.48
2018-11-14T23:57:56.393Z,8.39
